sensor_id;sensor_type;location;lat;lon;timestamp;temperature;humidity
73955;DHT22;62306;52.516;13.290;2023-06-10T00:01:36;16.90;96.50
73955;DHT22;62306;52.516;13.290;2023-06-10T00:04:05;16.90;96.50
73955;DHT22;62306;52.516;13.290;2023-06-10T00:06:32;16.90;96.50
73955;DHT22;62306;52.516;13.290;2023-06-10T00:09:02;16.90;96.60
73955;DHT22;62306;52.516;13.290;2023-06-10T00:11:30;16.80;96.70
73955;DHT22;62306;52.516;13.290;2023-06-10T00:13:57;16.80;96.80
73955;DHT22;62306;52.516;13.290;2023-06-10T00:16:24;16.80;96.90
73955;DHT22;62306;52.516;13.290;2023-06-10T00:18:51;16.60;97.10
73955;DHT22;62306;52.516;13.290;2023-06-10T00:21:19;16.60;97.50
73955;DHT22;62306;52.516;13.290;2023-06-10T00:23:46;16.60;97.50
73955;DHT22;62306;52.516;13.290;2023-06-10T00:26:12;16.60;97.50
73955;DHT22;62306;52.516;13.290;2023-06-10T00:28:39;16.70;97.30
73955;DHT22;62306;52.516;13.290;2023-06-10T00:31:06;16.70;97.30
73955;DHT22;62306;52.516;13.290;2023-06-10T00:33:33;16.70;97.30
73955;DHT22;62306;52.516;13.290;2023-06-10T00:36:01;16.60;97.50
73955;DHT22;62306;52.516;13.290;2023-06-10T00:38:29;16.50;97.80
73955;DHT22;62306;52.516;13.290;2023-06-10T00:40:56;16.50;97.80
73955;DHT22;62306;52.516;13.290;2023-06-10T00:43:22;16.50;97.90
73955;DHT22;62306;52.516;13.290;2023-06-10T00:45:50;16.60;97.80
73955;DHT22;62306;52.516;13.290;2023-06-10T00:48:18;16.60;97.90
73955;DHT22;62306;52.516;13.290;2023-06-10T00:50:45;16.50;97.90
73955;DHT22;62306;52.516;13.290;2023-06-10T00:53:12;16.50;97.90
73955;DHT22;62306;52.516;13.290;2023-06-10T00:55:41;16.50;98.10
73955;DHT22;62306;52.516;13.290;2023-06-10T00:58:09;16.50;98.00
73955;DHT22;62306;52.516;13.290;2023-06-10T01:00:36;16.40;98.10
73955;DHT22;62306;52.516;13.290;2023-06-10T01:03:03;16.40;98.20
73955;DHT22;62306;52.516;13.290;2023-06-10T01:05:33;16.40;98.60
73955;DHT22;62306;52.516;13.290;2023-06-10T01:08:03;16.30;98.50
73955;DHT22;62306;52.516;13.290;2023-06-10T01:10:37;16.30;98.60
73955;DHT22;62306;52.516;13.290;2023-06-10T01:13:07;16.40;98.50
73955;DHT22;62306;52.516;13.290;2023-06-10T01:15:37;16.40;98.50
73955;DHT22;62306;52.516;13.290;2023-06-10T01:18:06;16.40;98.50
73955;DHT22;62306;52.516;13.290;2023-06-10T01:20:35;16.40;98.50
73955;DHT22;62306;52.516;13.290;2023-06-10T01:23:07;16.30;98.70
73955;DHT22;62306;52.516;13.290;2023-06-10T01:25:36;16.30;98.70
73955;DHT22;62306;52.516;13.290;2023-06-10T01:28:09;16.30;98.80
73955;DHT22;62306;52.516;13.290;2023-06-10T01:30:41;16.20;98.90
73955;DHT22;62306;52.516;13.290;2023-06-10T01:33:13;16.20;99.00
73955;DHT22;62306;52.516;13.290;2023-06-10T01:35:41;16.20;99.10
73955;DHT22;62306;52.516;13.290;2023-06-10T01:38:12;16.10;99.30
73955;DHT22;62306;52.516;13.290;2023-06-10T01:40:42;16.10;99.30
73955;DHT22;62306;52.516;13.290;2023-06-10T01:43:09;16.10;99.40
73955;DHT22;62306;52.516;13.290;2023-06-10T01:45:36;16.10;99.40
73955;DHT22;62306;52.516;13.290;2023-06-10T01:48:03;16.10;99.50
73955;DHT22;62306;52.516;13.290;2023-06-10T01:50:30;16.10;99.50
73955;DHT22;62306;52.516;13.290;2023-06-10T01:52:57;16.00;99.50
73955;DHT22;62306;52.516;13.290;2023-06-10T01:55:26;16.00;99.60
73955;DHT22;62306;52.516;13.290;2023-06-10T01:57:53;16.00;99.80
73955;DHT22;62306;52.516;13.290;2023-06-10T02:00:20;15.90;99.70
73955;DHT22;62306;52.516;13.290;2023-06-10T02:02:47;15.90;99.90
73955;DHT22;62306;52.516;13.290;2023-06-10T02:05:14;15.90;99.90
73955;DHT22;62306;52.516;13.290;2023-06-10T02:07:41;15.90;99.90
73955;DHT22;62306;52.516;13.290;2023-06-10T02:10:08;15.80;99.90
73955;DHT22;62306;52.516;13.290;2023-06-10T02:12:36;15.80;99.90
73955;DHT22;62306;52.516;13.290;2023-06-10T02:15:03;15.80;99.90
73955;DHT22;62306;52.516;13.290;2023-06-10T02:17:30;15.80;99.90
73955;DHT22;62306;52.516;13.290;2023-06-10T02:19:58;15.80;99.90
73955;DHT22;62306;52.516;13.290;2023-06-10T02:22:25;15.80;99.90
73955;DHT22;62306;52.516;13.290;2023-06-10T02:24:52;15.80;99.90
73955;DHT22;62306;52.516;13.290;2023-06-10T02:27:19;15.80;99.90
73955;DHT22;62306;52.516;13.290;2023-06-10T02:29:47;15.80;99.90
73955;DHT22;62306;52.516;13.290;2023-06-10T02:32:14;15.70;99.90
73955;DHT22;62306;52.516;13.290;2023-06-10T02:34:41;15.70;99.90
73955;DHT22;62306;52.516;13.290;2023-06-10T02:37:09;15.70;99.90
73955;DHT22;62306;52.516;13.290;2023-06-10T02:39:36;15.70;99.90
73955;DHT22;62306;52.516;13.290;2023-06-10T02:42:03;15.70;99.90
73955;DHT22;62306;52.516;13.290;2023-06-10T02:44:31;15.60;99.90
73955;DHT22;62306;52.516;13.290;2023-06-10T02:46:59;15.60;99.90
73955;DHT22;62306;52.516;13.290;2023-06-10T02:49:26;15.60;99.90
73955;DHT22;62306;52.516;13.290;2023-06-10T02:51:54;15.60;99.90
73955;DHT22;62306;52.516;13.290;2023-06-10T02:54:22;15.60;99.90
73955;DHT22;62306;52.516;13.290;2023-06-10T02:56:49;15.60;99.90
73955;DHT22;62306;52.516;13.290;2023-06-10T02:59:16;15.60;99.90
73955;DHT22;62306;52.516;13.290;2023-06-10T03:01:43;15.60;99.90
73955;DHT22;62306;52.516;13.290;2023-06-10T03:04:11;15.60;99.90
73955;DHT22;62306;52.516;13.290;2023-06-10T03:06:40;15.60;99.90
73955;DHT22;62306;52.516;13.290;2023-06-10T03:09:07;15.60;99.90
73955;DHT22;62306;52.516;13.290;2023-06-10T03:11:34;15.60;99.90
73955;DHT22;62306;52.516;13.290;2023-06-10T03:14:01;15.60;99.90
73955;DHT22;62306;52.516;13.290;2023-06-10T03:16:28;15.60;99.90
73955;DHT22;62306;52.516;13.290;2023-06-10T03:18:56;15.60;99.90
73955;DHT22;62306;52.516;13.290;2023-06-10T03:21:25;15.60;99.90
73955;DHT22;62306;52.516;13.290;2023-06-10T03:23:52;15.60;99.90
73955;DHT22;62306;52.516;13.290;2023-06-10T03:26:19;15.60;99.90
73955;DHT22;62306;52.516;13.290;2023-06-10T03:28:47;15.60;99.90
73955;DHT22;62306;52.516;13.290;2023-06-10T03:31:14;15.60;99.90
73955;DHT22;62306;52.516;13.290;2023-06-10T03:33:42;15.70;99.90
73955;DHT22;62306;52.516;13.290;2023-06-10T03:36:09;15.70;99.90
73955;DHT22;62306;52.516;13.290;2023-06-10T03:38:37;15.70;99.90
73955;DHT22;62306;52.516;13.290;2023-06-10T03:41:04;15.70;99.90
73955;DHT22;62306;52.516;13.290;2023-06-10T03:43:31;15.70;99.90
73955;DHT22;62306;52.516;13.290;2023-06-10T03:45:58;15.80;99.90
73955;DHT22;62306;52.516;13.290;2023-06-10T03:48:25;15.80;99.90
73955;DHT22;62306;52.516;13.290;2023-06-10T03:50:52;15.90;99.90
73955;DHT22;62306;52.516;13.290;2023-06-10T03:53:19;15.90;99.90
73955;DHT22;62306;52.516;13.290;2023-06-10T03:55:47;16.00;99.90
73955;DHT22;62306;52.516;13.290;2023-06-10T03:58:14;16.00;99.90
73955;DHT22;62306;52.516;13.290;2023-06-10T04:00:41;16.00;99.90
73955;DHT22;62306;52.516;13.290;2023-06-10T04:03:08;16.00;99.90
73955;DHT22;62306;52.516;13.290;2023-06-10T04:05:40;16.10;99.90
73955;DHT22;62306;52.516;13.290;2023-06-10T04:08:08;16.10;99.90
73955;DHT22;62306;52.516;13.290;2023-06-10T04:10:35;16.10;99.90
73955;DHT22;62306;52.516;13.290;2023-06-10T04:13:03;16.10;99.90
73955;DHT22;62306;52.516;13.290;2023-06-10T04:15:30;16.10;99.90
73955;DHT22;62306;52.516;13.290;2023-06-10T04:17:59;16.10;99.90
73955;DHT22;62306;52.516;13.290;2023-06-10T04:20:26;16.20;99.90
73955;DHT22;62306;52.516;13.290;2023-06-10T04:22:53;16.20;99.90
73955;DHT22;62306;52.516;13.290;2023-06-10T04:25:20;16.30;99.90
73955;DHT22;62306;52.516;13.290;2023-06-10T04:27:47;16.30;99.90
73955;DHT22;62306;52.516;13.290;2023-06-10T04:30:16;16.40;99.80
73955;DHT22;62306;52.516;13.290;2023-06-10T04:32:43;16.50;99.50
73955;DHT22;62306;52.516;13.290;2023-06-10T04:35:11;16.60;99.30
73955;DHT22;62306;52.516;13.290;2023-06-10T04:37:39;16.80;98.90
73955;DHT22;62306;52.516;13.290;2023-06-10T04:40:07;17.00;98.40
73955;DHT22;62306;52.516;13.290;2023-06-10T04:42:34;17.00;98.20
73955;DHT22;62306;52.516;13.290;2023-06-10T04:45:02;17.10;98.00
73955;DHT22;62306;52.516;13.290;2023-06-10T04:47:30;17.10;97.90
73955;DHT22;62306;52.516;13.290;2023-06-10T04:49:58;17.10;98.00
73955;DHT22;62306;52.516;13.290;2023-06-10T04:52:25;17.00;98.00
73955;DHT22;62306;52.516;13.290;2023-06-10T04:54:52;17.00;98.30
73955;DHT22;62306;52.516;13.290;2023-06-10T04:57:19;17.00;98.20
73955;DHT22;62306;52.516;13.290;2023-06-10T04:59:46;17.10;97.90
73955;DHT22;62306;52.516;13.290;2023-06-10T05:02:13;17.20;97.80
73955;DHT22;62306;52.516;13.290;2023-06-10T05:04:41;17.10;97.80
73955;DHT22;62306;52.516;13.290;2023-06-10T05:07:08;17.20;97.80
73955;DHT22;62306;52.516;13.290;2023-06-10T05:09:35;17.20;97.60
73955;DHT22;62306;52.516;13.290;2023-06-10T05:12:03;17.30;97.50
73955;DHT22;62306;52.516;13.290;2023-06-10T05:14:30;17.30;97.40
73955;DHT22;62306;52.516;13.290;2023-06-10T05:16:57;17.30;97.60
73955;DHT22;62306;52.516;13.290;2023-06-10T05:19:24;17.20;97.50
73955;DHT22;62306;52.516;13.290;2023-06-10T05:21:54;17.20;97.60
73955;DHT22;62306;52.516;13.290;2023-06-10T05:24:21;17.10;97.70
73955;DHT22;62306;52.516;13.290;2023-06-10T05:26:48;17.10;97.80
73955;DHT22;62306;52.516;13.290;2023-06-10T05:29:15;17.10;97.80
73955;DHT22;62306;52.516;13.290;2023-06-10T05:31:42;17.10;97.80
73955;DHT22;62306;52.516;13.290;2023-06-10T05:34:09;17.10;97.80
73955;DHT22;62306;52.516;13.290;2023-06-10T05:36:36;17.20;97.70
73955;DHT22;62306;52.516;13.290;2023-06-10T05:39:04;17.20;97.70
73955;DHT22;62306;52.516;13.290;2023-06-10T05:41:31;17.40;97.60
73955;DHT22;62306;52.516;13.290;2023-06-10T05:43:58;17.40;97.40
73955;DHT22;62306;52.516;13.290;2023-06-10T05:46:25;18.10;96.70
73955;DHT22;62306;52.516;13.290;2023-06-10T05:48:52;19.20;94.40
73955;DHT22;62306;52.516;13.290;2023-06-10T05:51:19;20.70;91.40
73955;DHT22;62306;52.516;13.290;2023-06-10T05:53:45;22.00;86.50
73955;DHT22;62306;52.516;13.290;2023-06-10T05:56:14;23.50;80.30
73955;DHT22;62306;52.516;13.290;2023-06-10T05:58:41;24.90;75.10
73955;DHT22;62306;52.516;13.290;2023-06-10T06:01:08;26.00;69.20
73955;DHT22;62306;52.516;13.290;2023-06-10T06:03:34;26.30;65.10
73955;DHT22;62306;52.516;13.290;2023-06-10T06:06:02;26.50;64.70
73955;DHT22;62306;52.516;13.290;2023-06-10T06:08:29;26.10;65.40
73955;DHT22;62306;52.516;13.290;2023-06-10T06:10:56;24.80;67.50
73955;DHT22;62306;52.516;13.290;2023-06-10T06:13:24;23.40;72.30
73955;DHT22;62306;52.516;13.290;2023-06-10T06:15:51;22.30;76.90
73955;DHT22;62306;52.516;13.290;2023-06-10T06:18:18;21.60;81.40
73955;DHT22;62306;52.516;13.290;2023-06-10T06:20:45;20.80;85.10
73955;DHT22;62306;52.516;13.290;2023-06-10T06:23:12;20.50;87.40
73955;DHT22;62306;52.516;13.290;2023-06-10T06:25:39;20.20;89.40
73955;DHT22;62306;52.516;13.290;2023-06-10T06:28:06;20.10;90.30
73955;DHT22;62306;52.516;13.290;2023-06-10T06:30:36;20.00;90.80
73955;DHT22;62306;52.516;13.290;2023-06-10T06:33:03;20.00;91.10
73955;DHT22;62306;52.516;13.290;2023-06-10T06:35:30;20.10;91.10
73955;DHT22;62306;52.516;13.290;2023-06-10T06:37:57;20.90;89.20
73955;DHT22;62306;52.516;13.290;2023-06-10T06:40:25;21.00;88.20
73955;DHT22;62306;52.516;13.290;2023-06-10T06:42:52;21.00;87.90
73955;DHT22;62306;52.516;13.290;2023-06-10T06:45:19;20.90;88.30
73955;DHT22;62306;52.516;13.290;2023-06-10T06:47:47;21.00;88.50
73955;DHT22;62306;52.516;13.290;2023-06-10T06:50:14;21.40;87.60
73955;DHT22;62306;52.516;13.290;2023-06-10T06:52:42;21.70;85.90
73955;DHT22;62306;52.516;13.290;2023-06-10T06:55:08;21.80;85.40
73955;DHT22;62306;52.516;13.290;2023-06-10T06:57:35;21.90;84.50
73955;DHT22;62306;52.516;13.290;2023-06-10T07:00:04;22.10;84.00
73955;DHT22;62306;52.516;13.290;2023-06-10T07:02:31;21.70;84.50
73955;DHT22;62306;52.516;13.290;2023-06-10T07:05:00;21.50;85.20
73955;DHT22;62306;52.516;13.290;2023-06-10T07:07:27;21.40;85.80
73955;DHT22;62306;52.516;13.290;2023-06-10T07:09:54;21.40;86.40
73955;DHT22;62306;52.516;13.290;2023-06-10T07:12:21;21.00;86.90
73955;DHT22;62306;52.516;13.290;2023-06-10T07:14:49;21.10;87.70
73955;DHT22;62306;52.516;13.290;2023-06-10T07:17:16;21.30;86.80
73955;DHT22;62306;52.516;13.290;2023-06-10T07:19:43;21.50;86.30
73955;DHT22;62306;52.516;13.290;2023-06-10T07:22:12;21.80;85.30
73955;DHT22;62306;52.516;13.290;2023-06-10T07:24:39;22.30;84.20
73955;DHT22;62306;52.516;13.290;2023-06-10T07:27:06;23.20;81.10
73955;DHT22;62306;52.516;13.290;2023-06-10T07:29:33;23.90;78.10
73955;DHT22;62306;52.516;13.290;2023-06-10T07:32:02;24.10;76.60
73955;DHT22;62306;52.516;13.290;2023-06-10T07:34:28;24.60;75.10
73955;DHT22;62306;52.516;13.290;2023-06-10T07:36:55;25.00;72.90
73955;DHT22;62306;52.516;13.290;2023-06-10T07:39:23;24.60;72.80
73955;DHT22;62306;52.516;13.290;2023-06-10T07:41:50;24.40;73.80
73955;DHT22;62306;52.516;13.290;2023-06-10T07:44:19;24.20;73.80
73955;DHT22;62306;52.516;13.290;2023-06-10T07:46:46;23.70;74.90
73955;DHT22;62306;52.516;13.290;2023-06-10T07:49:13;23.30;77.50
73955;DHT22;62306;52.516;13.290;2023-06-10T07:51:40;23.40;77.80
73955;DHT22;62306;52.516;13.290;2023-06-10T07:54:07;23.90;76.50
73955;DHT22;62306;52.516;13.290;2023-06-10T07:56:35;24.20;75.70
73955;DHT22;62306;52.516;13.290;2023-06-10T07:59:02;24.70;73.70
73955;DHT22;62306;52.516;13.290;2023-06-10T08:01:29;24.60;73.50
73955;DHT22;62306;52.516;13.290;2023-06-10T08:03:56;25.00;73.00
73955;DHT22;62306;52.516;13.290;2023-06-10T08:06:23;25.10;72.20
73955;DHT22;62306;52.516;13.290;2023-06-10T08:08:50;24.80;71.20
73955;DHT22;62306;52.516;13.290;2023-06-10T08:11:17;24.20;73.00
73955;DHT22;62306;52.516;13.290;2023-06-10T08:13:46;23.90;74.20
73955;DHT22;62306;52.516;13.290;2023-06-10T08:16:13;23.80;75.90
73955;DHT22;62306;52.516;13.290;2023-06-10T08:18:40;23.50;75.70
73955;DHT22;62306;52.516;13.290;2023-06-10T08:21:07;23.40;76.80
73955;DHT22;62306;52.516;13.290;2023-06-10T08:23:34;23.40;77.40
73955;DHT22;62306;52.516;13.290;2023-06-10T08:26:01;23.40;78.20
73955;DHT22;62306;52.516;13.290;2023-06-10T08:28:28;23.80;77.00
73955;DHT22;62306;52.516;13.290;2023-06-10T08:30:56;24.20;75.00
73955;DHT22;62306;52.516;13.290;2023-06-10T08:33:23;24.70;73.70
73955;DHT22;62306;52.516;13.290;2023-06-10T08:35:50;24.80;73.00
73955;DHT22;62306;52.516;13.290;2023-06-10T08:38:17;25.50;71.50
73955;DHT22;62306;52.516;13.290;2023-06-10T08:40:43;25.80;70.30
73955;DHT22;62306;52.516;13.290;2023-06-10T08:43:17;26.10;68.00
73955;DHT22;62306;52.516;13.290;2023-06-10T08:45:49;25.60;69.60
73955;DHT22;62306;52.516;13.290;2023-06-10T08:48:19;25.70;69.30
73955;DHT22;62306;52.516;13.290;2023-06-10T08:50:47;25.50;69.70
73955;DHT22;62306;52.516;13.290;2023-06-10T08:53:18;25.30;70.20
73955;DHT22;62306;52.516;13.290;2023-06-10T08:55:50;25.50;70.50
73955;DHT22;62306;52.516;13.290;2023-06-10T08:58:18;25.50;69.50
73955;DHT22;62306;52.516;13.290;2023-06-10T09:00:44;25.30;69.60
73955;DHT22;62306;52.516;13.290;2023-06-10T09:03:12;25.60;69.90
73955;DHT22;62306;52.516;13.290;2023-06-10T09:05:41;26.00;68.70
73955;DHT22;62306;52.516;13.290;2023-06-10T09:08:08;26.40;67.40
73955;DHT22;62306;52.516;13.290;2023-06-10T09:10:36;26.40;67.70
73955;DHT22;62306;52.516;13.290;2023-06-10T09:13:03;26.10;68.00
73955;DHT22;62306;52.516;13.290;2023-06-10T09:15:30;26.10;68.50
73955;DHT22;62306;52.516;13.290;2023-06-10T09:17:56;26.00;68.30
73955;DHT22;62306;52.516;13.290;2023-06-10T09:20:25;25.80;68.60
73955;DHT22;62306;52.516;13.290;2023-06-10T09:22:53;25.30;69.50
73955;DHT22;62306;52.516;13.290;2023-06-10T09:25:34;25.00;70.80
73955;DHT22;62306;52.516;13.290;2023-06-10T09:28:02;25.00;71.00
73955;DHT22;62306;52.516;13.290;2023-06-10T09:30:31;24.90;71.20
73955;DHT22;62306;52.516;13.290;2023-06-10T09:32:59;24.80;71.30
73955;DHT22;62306;52.516;13.290;2023-06-10T09:35:29;24.70;71.80
73955;DHT22;62306;52.516;13.290;2023-06-10T09:37:59;24.60;72.70
73955;DHT22;62306;52.516;13.290;2023-06-10T09:40:27;24.70;72.50
73955;DHT22;62306;52.516;13.290;2023-06-10T09:42:55;24.60;72.50
73955;DHT22;62306;52.516;13.290;2023-06-10T09:45:23;24.50;73.30
73955;DHT22;62306;52.516;13.290;2023-06-10T09:47:54;24.60;73.00
73955;DHT22;62306;52.516;13.290;2023-06-10T09:50:21;24.50;72.50
73955;DHT22;62306;52.516;13.290;2023-06-10T09:52:48;24.60;72.90
73955;DHT22;62306;52.516;13.290;2023-06-10T09:55:17;24.50;73.20
73955;DHT22;62306;52.516;13.290;2023-06-10T09:57:44;24.60;73.50
73955;DHT22;62306;52.516;13.290;2023-06-10T10:00:16;24.60;73.10
73955;DHT22;62306;52.516;13.290;2023-06-10T10:02:48;24.40;72.60
73955;DHT22;62306;52.516;13.290;2023-06-10T10:05:15;24.00;74.30
73955;DHT22;62306;52.516;13.290;2023-06-10T10:07:42;23.70;75.40
73955;DHT22;62306;52.516;13.290;2023-06-10T10:10:10;23.60;76.40
73955;DHT22;62306;52.516;13.290;2023-06-10T10:12:39;23.60;75.90
73955;DHT22;62306;52.516;13.290;2023-06-10T10:15:08;23.30;76.10
73955;DHT22;62306;52.516;13.290;2023-06-10T10:17:39;23.10;76.40
73955;DHT22;62306;52.516;13.290;2023-06-10T10:20:08;23.00;76.40
73955;DHT22;62306;52.516;13.290;2023-06-10T10:22:37;23.00;77.60
73955;DHT22;62306;52.516;13.290;2023-06-10T10:25:09;23.00;77.30
73955;DHT22;62306;52.516;13.290;2023-06-10T10:27:44;23.30;77.90
73955;DHT22;62306;52.516;13.290;2023-06-10T10:30:14;23.30;78.20
73955;DHT22;62306;52.516;13.290;2023-06-10T10:32:57;23.30;76.50
73955;DHT22;62306;52.516;13.290;2023-06-10T10:35:25;23.30;78.40
73955;DHT22;62306;52.516;13.290;2023-06-10T10:37:54;23.20;77.80
73955;DHT22;62306;52.516;13.290;2023-06-10T10:40:21;23.10;78.80
73955;DHT22;62306;52.516;13.290;2023-06-10T10:42:51;23.20;80.10
73955;DHT22;62306;52.516;13.290;2023-06-10T10:45:18;23.10;76.90
73955;DHT22;62306;52.516;13.290;2023-06-10T10:47:46;23.10;75.00
73955;DHT22;62306;52.516;13.290;2023-06-10T10:50:14;23.10;73.80
73955;DHT22;62306;52.516;13.290;2023-06-10T10:52:53;23.30;72.60
73955;DHT22;62306;52.516;13.290;2023-06-10T10:55:20;23.30;71.10
73955;DHT22;62306;52.516;13.290;2023-06-10T10:57:56;23.30;71.50
73955;DHT22;62306;52.516;13.290;2023-06-10T11:00:29;23.10;70.90
73955;DHT22;62306;52.516;13.290;2023-06-10T11:03:04;23.10;71.50
73955;DHT22;62306;52.516;13.290;2023-06-10T11:05:37;23.20;71.20
73955;DHT22;62306;52.516;13.290;2023-06-10T11:08:05;23.40;70.40
73955;DHT22;62306;52.516;13.290;2023-06-10T11:10:33;23.60;70.90
73955;DHT22;62306;52.516;13.290;2023-06-10T11:13:06;23.80;70.90
73955;DHT22;62306;52.516;13.290;2023-06-10T11:15:33;24.20;68.90
73955;DHT22;62306;52.516;13.290;2023-06-10T11:20:58;24.90;68.60
73955;DHT22;62306;52.516;13.290;2023-06-10T11:23:38;25.30;67.30
73955;DHT22;62306;52.516;13.290;2023-06-10T11:26:13;25.70;67.00
73955;DHT22;62306;52.516;13.290;2023-06-10T11:31:28;26.10;65.20
73955;DHT22;62306;52.516;13.290;2023-06-10T11:33:56;26.10;64.50
73955;DHT22;62306;52.516;13.290;2023-06-10T11:36:24;26.00;64.90
73955;DHT22;62306;52.516;13.290;2023-06-10T11:38:55;26.00;65.90
73955;DHT22;62306;52.516;13.290;2023-06-10T11:41:23;26.00;65.50
73955;DHT22;62306;52.516;13.290;2023-06-10T11:43:53;25.80;63.80
73955;DHT22;62306;52.516;13.290;2023-06-10T11:46:21;25.70;64.70
73955;DHT22;62306;52.516;13.290;2023-06-10T11:48:49;25.80;65.90
73955;DHT22;62306;52.516;13.290;2023-06-10T11:51:16;26.00;63.90
73955;DHT22;62306;52.516;13.290;2023-06-10T11:53:44;26.00;63.50
73955;DHT22;62306;52.516;13.290;2023-06-10T11:56:11;25.90;62.80
73955;DHT22;62306;52.516;13.290;2023-06-10T11:58:40;25.70;63.70
73955;DHT22;62306;52.516;13.290;2023-06-10T12:01:11;25.30;64.40
73955;DHT22;62306;52.516;13.290;2023-06-10T12:03:45;25.00;65.30
73955;DHT22;62306;52.516;13.290;2023-06-10T12:06:12;24.70;67.50
73955;DHT22;62306;52.516;13.290;2023-06-10T12:08:41;24.90;67.90
73955;DHT22;62306;52.516;13.290;2023-06-10T12:11:09;25.30;68.50
73955;DHT22;62306;52.516;13.290;2023-06-10T12:13:36;25.50;69.10
73955;DHT22;62306;52.516;13.290;2023-06-10T12:16:07;25.50;69.70
73955;DHT22;62306;52.516;13.290;2023-06-10T12:18:35;25.60;70.40
73955;DHT22;62306;52.516;13.290;2023-06-10T12:21:02;25.60;70.80
73955;DHT22;62306;52.516;13.290;2023-06-10T12:23:30;25.50;69.60
73955;DHT22;62306;52.516;13.290;2023-06-10T12:25:57;25.50;70.20
73955;DHT22;62306;52.516;13.290;2023-06-10T12:28:26;25.60;71.40
73955;DHT22;62306;52.516;13.290;2023-06-10T12:31:08;25.70;68.60
73955;DHT22;62306;52.516;13.290;2023-06-10T12:33:36;25.80;67.20
73955;DHT22;62306;52.516;13.290;2023-06-10T12:36:04;25.70;67.10
73955;DHT22;62306;52.516;13.290;2023-06-10T12:38:31;26.00;66.50
73955;DHT22;62306;52.516;13.290;2023-06-10T12:41:01;26.00;64.40
73955;DHT22;62306;52.516;13.290;2023-06-10T12:43:31;25.80;63.20
73955;DHT22;62306;52.516;13.290;2023-06-10T12:46:08;26.10;64.20
73955;DHT22;62306;52.516;13.290;2023-06-10T12:48:37;26.40;62.90
73955;DHT22;62306;52.516;13.290;2023-06-10T12:51:16;26.60;61.70
73955;DHT22;62306;52.516;13.290;2023-06-10T12:53:43;26.70;61.30
73955;DHT22;62306;52.516;13.290;2023-06-10T12:56:10;26.80;60.40
73955;DHT22;62306;52.516;13.290;2023-06-10T12:58:37;26.90;60.10
73955;DHT22;62306;52.516;13.290;2023-06-10T13:01:04;27.00;59.70
73955;DHT22;62306;52.516;13.290;2023-06-10T13:03:31;27.10;59.70
73955;DHT22;62306;52.516;13.290;2023-06-10T13:05:59;27.10;59.80
73955;DHT22;62306;52.516;13.290;2023-06-10T13:08:26;27.10;59.60
73955;DHT22;62306;52.516;13.290;2023-06-10T13:10:53;27.10;60.70
73955;DHT22;62306;52.516;13.290;2023-06-10T13:13:20;26.90;61.50
73955;DHT22;62306;52.516;13.290;2023-06-10T13:15:47;27.00;61.50
73955;DHT22;62306;52.516;13.290;2023-06-10T13:18:15;27.00;61.40
73955;DHT22;62306;52.516;13.290;2023-06-10T13:20:43;27.00;61.70
73955;DHT22;62306;52.516;13.290;2023-06-10T13:23:11;27.00;62.20
73955;DHT22;62306;52.516;13.290;2023-06-10T13:25:39;27.10;62.00
73955;DHT22;62306;52.516;13.290;2023-06-10T13:28:06;27.30;62.70
73955;DHT22;62306;52.516;13.290;2023-06-10T13:30:33;27.40;62.30
73955;DHT22;62306;52.516;13.290;2023-06-10T13:33:00;27.50;61.60
73955;DHT22;62306;52.516;13.290;2023-06-10T13:35:27;27.60;60.90
73955;DHT22;62306;52.516;13.290;2023-06-10T13:37:54;27.60;61.20
73955;DHT22;62306;52.516;13.290;2023-06-10T13:40:22;27.60;61.00
73955;DHT22;62306;52.516;13.290;2023-06-10T13:42:49;27.70;61.30
73955;DHT22;62306;52.516;13.290;2023-06-10T13:45:18;27.50;60.70
73955;DHT22;62306;52.516;13.290;2023-06-10T13:47:44;27.30;61.40
73955;DHT22;62306;52.516;13.290;2023-06-10T13:50:11;27.30;60.70
73955;DHT22;62306;52.516;13.290;2023-06-10T13:52:38;27.50;60.50
73955;DHT22;62306;52.516;13.290;2023-06-10T13:55:06;27.70;59.80
73955;DHT22;62306;52.516;13.290;2023-06-10T13:57:34;27.60;59.80
73955;DHT22;62306;52.516;13.290;2023-06-10T14:00:01;27.50;59.50
73955;DHT22;62306;52.516;13.290;2023-06-10T14:02:28;27.60;59.00
73955;DHT22;62306;52.516;13.290;2023-06-10T14:04:55;27.70;58.70
73955;DHT22;62306;52.516;13.290;2023-06-10T14:07:22;27.70;58.40
73955;DHT22;62306;52.516;13.290;2023-06-10T14:09:51;27.60;58.20
73955;DHT22;62306;52.516;13.290;2023-06-10T14:12:18;27.50;58.90
73955;DHT22;62306;52.516;13.290;2023-06-10T14:14:46;27.30;58.50
73955;DHT22;62306;52.516;13.290;2023-06-10T14:17:13;27.20;58.20
73955;DHT22;62306;52.516;13.290;2023-06-10T14:19:40;27.30;59.30
73955;DHT22;62306;52.516;13.290;2023-06-10T14:22:07;27.40;59.20
73955;DHT22;62306;52.516;13.290;2023-06-10T14:24:34;27.50;59.60
73955;DHT22;62306;52.516;13.290;2023-06-10T14:27:01;27.60;60.10
73955;DHT22;62306;52.516;13.290;2023-06-10T14:29:28;27.50;59.80
73955;DHT22;62306;52.516;13.290;2023-06-10T14:31:58;27.30;60.60
73955;DHT22;62306;52.516;13.290;2023-06-10T14:34:25;27.30;58.60
73955;DHT22;62306;52.516;13.290;2023-06-10T14:36:54;27.30;56.90
73955;DHT22;62306;52.516;13.290;2023-06-10T14:39:21;27.30;55.10
73955;DHT22;62306;52.516;13.290;2023-06-10T14:41:48;27.40;52.60
73955;DHT22;62306;52.516;13.290;2023-06-10T14:44:15;27.50;52.70
73955;DHT22;62306;52.516;13.290;2023-06-10T14:46:41;27.70;51.70
73955;DHT22;62306;52.516;13.290;2023-06-10T14:49:10;27.50;51.00
73955;DHT22;62306;52.516;13.290;2023-06-10T14:51:37;27.60;51.30
73955;DHT22;62306;52.516;13.290;2023-06-10T14:54:04;27.70;52.00
73955;DHT22;62306;52.516;13.290;2023-06-10T14:56:30;27.70;51.80
73955;DHT22;62306;52.516;13.290;2023-06-10T14:58:57;27.70;52.30
73955;DHT22;62306;52.516;13.290;2023-06-10T15:01:24;27.70;52.50
73955;DHT22;62306;52.516;13.290;2023-06-10T15:03:51;27.80;51.90
73955;DHT22;62306;52.516;13.290;2023-06-10T15:06:19;28.00;51.40
73955;DHT22;62306;52.516;13.290;2023-06-10T15:08:48;28.00;51.00
73955;DHT22;62306;52.516;13.290;2023-06-10T15:11:15;28.00;50.90
73955;DHT22;62306;52.516;13.290;2023-06-10T15:13:42;28.00;49.70
73955;DHT22;62306;52.516;13.290;2023-06-10T15:16:09;27.80;49.60
73955;DHT22;62306;52.516;13.290;2023-06-10T15:18:36;27.80;49.60
73955;DHT22;62306;52.516;13.290;2023-06-10T15:21:03;27.80;50.00
73955;DHT22;62306;52.516;13.290;2023-06-10T15:23:31;27.90;49.80
73955;DHT22;62306;52.516;13.290;2023-06-10T15:25:58;28.00;49.30